sensor_id;sensor_type;location;lat;lon;timestamp;P1;durP1;ratioP1;P2;durP2;ratioP2
48751;SDS011;34544;48.836;9.174;2023-11-21T00:00:15;7.78;;;1.65;;
48751;SDS011;34544;48.836;9.174;2023-11-21T00:02:41;5.97;;;1.70;;
48751;SDS011;34544;48.836;9.174;2023-11-21T00:05:11;8.38;;;1.58;;
48751;SDS011;34544;48.836;9.174;2023-11-21T00:07:41;10.50;;;1.90;;
48751;SDS011;34544;48.836;9.174;2023-11-21T00:10:08;4.60;;;1.38;;
48751;SDS011;34544;48.836;9.174;2023-11-21T00:12:35;2.95;;;1.23;;
48751;SDS011;34544;48.836;9.174;2023-11-21T00:15:01;5.28;;;1.48;;
48751;SDS011;34544;48.836;9.174;2023-11-21T00:17:27;6.53;;;1.85;;
48751;SDS011;34544;48.836;9.174;2023-11-21T00:19:53;1.88;;;1.02;;
48751;SDS011;34544;48.836;9.174;2023-11-21T00:22:19;2.45;;;1.58;;
48751;SDS011;34544;48.836;9.174;2023-11-21T00:24:46;11.38;;;1.98;;
48751;SDS011;34544;48.836;9.174;2023-11-21T00:27:12;7.88;;;1.33;;
48751;SDS011;34544;48.836;9.174;2023-11-21T00:29:39;4.95;;;1.20;;
48751;SDS011;34544;48.836;9.174;2023-11-21T00:32:05;5.40;;;1.60;;
48751;SDS011;34544;48.836;9.174;2023-11-21T00:34:32;2.20;;;0.98;;
48751;SDS011;34544;48.836;9.174;2023-11-21T00:36:58;6.90;;;1.70;;
48751;SDS011;34544;48.836;9.174;2023-11-21T00:39:25;8.27;;;1.88;;
48751;SDS011;34544;48.836;9.174;2023-11-21T00:41:51;3.33;;;1.27;;
48751;SDS011;34544;48.836;9.174;2023-11-21T00:44:17;3.28;;;1.45;;
48751;SDS011;34544;48.836;9.174;2023-11-21T00:46:43;2.75;;;1.27;;
48751;SDS011;34544;48.836;9.174;2023-11-21T00:49:09;5.90;;;1.65;;
48751;SDS011;34544;48.836;9.174;2023-11-21T00:51:35;7.05;;;1.42;;
48751;SDS011;34544;48.836;9.174;2023-11-21T00:54:01;5.50;;;1.33;;
48751;SDS011;34544;48.836;9.174;2023-11-21T00:56:27;4.03;;;1.40;;
48751;SDS011;34544;48.836;9.174;2023-11-21T00:58:53;5.82;;;1.50;;
48751;SDS011;34544;48.836;9.174;2023-11-21T01:01:20;10.85;;;1.65;;
48751;SDS011;34544;48.836;9.174;2023-11-21T01:03:47;3.13;;;1.73;;
48751;SDS011;34544;48.836;9.174;2023-11-21T01:06:13;5.97;;;1.80;;
48751;SDS011;34544;48.836;9.174;2023-11-21T01:08:40;4.20;;;1.58;;
48751;SDS011;34544;48.836;9.174;2023-11-21T01:11:09;4.75;;;1.50;;
48751;SDS011;34544;48.836;9.174;2023-11-21T01:13:38;6.20;;;1.63;;
48751;SDS011;34544;48.836;9.174;2023-11-21T01:16:05;5.65;;;1.70;;
48751;SDS011;34544;48.836;9.174;2023-11-21T01:18:37;3.90;;;1.00;;
48751;SDS011;34544;48.836;9.174;2023-11-21T01:21:03;2.92;;;1.20;;
48751;SDS011;34544;48.836;9.174;2023-11-21T01:23:30;9.05;;;1.70;;
48751;SDS011;34544;48.836;9.174;2023-11-21T01:25:56;4.03;;;1.17;;
48751;SDS011;34544;48.836;9.174;2023-11-21T01:28:22;4.28;;;1.35;;
48751;SDS011;34544;48.836;9.174;2023-11-21T01:30:48;4.50;;;0.93;;
48751;SDS011;34544;48.836;9.174;2023-11-21T01:33:14;3.58;;;0.90;;
48751;SDS011;34544;48.836;9.174;2023-11-21T01:35:45;3.55;;;1.52;;
48751;SDS011;34544;48.836;9.174;2023-11-21T01:38:11;2.67;;;0.95;;
48751;SDS011;34544;48.836;9.174;2023-11-21T01:40:37;1.30;;;0.90;;
48751;SDS011;34544;48.836;9.174;2023-11-21T01:43:03;3.13;;;0.95;;
48751;SDS011;34544;48.836;9.174;2023-11-21T01:45:29;2.28;;;1.08;;
48751;SDS011;34544;48.836;9.174;2023-11-21T01:47:58;4.47;;;1.23;;
48751;SDS011;34544;48.836;9.174;2023-11-21T01:50:26;7.30;;;1.48;;
48751;SDS011;34544;48.836;9.174;2023-11-21T01:52:53;7.00;;;1.30;;
48751;SDS011;34544;48.836;9.174;2023-11-21T01:55:19;2.05;;;0.85;;
48751;SDS011;34544;48.836;9.174;2023-11-21T01:57:45;4.18;;;1.08;;
48751;SDS011;34544;48.836;9.174;2023-11-21T02:00:12;4.63;;;1.67;;
48751;SDS011;34544;48.836;9.174;2023-11-21T02:02:48;4.03;;;1.23;;
48751;SDS011;34544;48.836;9.174;2023-11-21T02:07:41;2.97;;;1.30;;
48751;SDS011;34544;48.836;9.174;2023-11-21T02:10:08;6.30;;;1.23;;
48751;SDS011;34544;48.836;9.174;2023-11-21T02:12:35;3.63;;;0.90;;
48751;SDS011;34544;48.836;9.174;2023-11-21T02:15:02;3.20;;;0.90;;
48751;SDS011;34544;48.836;9.174;2023-11-21T02:17:30;3.50;;;1.23;;
48751;SDS011;34544;48.836;9.174;2023-11-21T02:19:57;4.05;;;0.85;;
48751;SDS011;34544;48.836;9.174;2023-11-21T02:22:24;3.35;;;1.10;;
48751;SDS011;34544;48.836;9.174;2023-11-21T02:24:55;4.22;;;0.95;;
48751;SDS011;34544;48.836;9.174;2023-11-21T02:27:23;4.93;;;1.05;;
48751;SDS011;34544;48.836;9.174;2023-11-21T02:29:49;4.13;;;0.75;;
48751;SDS011;34544;48.836;9.174;2023-11-21T02:32:15;3.97;;;1.10;;
48751;SDS011;34544;48.836;9.174;2023-11-21T02:34:44;5.30;;;1.05;;
48751;SDS011;34544;48.836;9.174;2023-11-21T02:37:10;4.43;;;1.17;;
48751;SDS011;34544;48.836;9.174;2023-11-21T02:39:35;3.25;;;1.23;;
48751;SDS011;34544;48.836;9.174;2023-11-21T02:42:01;2.22;;;1.17;;
48751;SDS011;34544;48.836;9.174;2023-11-21T02:44:27;3.97;;;1.05;;
48751;SDS011;34544;48.836;9.174;2023-11-21T02:46:52;3.15;;;0.60;;
48751;SDS011;34544;48.836;9.174;2023-11-21T02:49:18;2.17;;;0.95;;
48751;SDS011;34544;48.836;9.174;2023-11-21T02:51:44;2.83;;;1.45;;
48751;SDS011;34544;48.836;9.174;2023-11-21T02:54:10;4.65;;;1.52;;
48751;SDS011;34544;48.836;9.174;2023-11-21T02:56:36;4.07;;;1.10;;
48751;SDS011;34544;48.836;9.174;2023-11-21T02:59:02;6.40;;;0.85;;
48751;SDS011;34544;48.836;9.174;2023-11-21T03:01:28;3.25;;;0.90;;
48751;SDS011;34544;48.836;9.174;2023-11-21T03:03:54;2.95;;;1.02;;
48751;SDS011;34544;48.836;9.174;2023-11-21T03:06:20;3.78;;;0.60;;
48751;SDS011;34544;48.836;9.174;2023-11-21T03:08:46;1.63;;;0.63;;
48751;SDS011;34544;48.836;9.174;2023-11-21T03:11:12;3.67;;;1.00;;
48751;SDS011;34544;48.836;9.174;2023-11-21T03:13:39;1.55;;;0.60;;
48751;SDS011;34544;48.836;9.174;2023-11-21T03:16:09;3.47;;;0.75;;
48751;SDS011;34544;48.836;9.174;2023-11-21T03:18:39;5.40;;;1.10;;
48751;SDS011;34544;48.836;9.174;2023-11-21T03:21:05;4.47;;;0.70;;
48751;SDS011;34544;48.836;9.174;2023-11-21T03:23:33;1.00;;;0.45;;
48751;SDS011;34544;48.836;9.174;2023-11-21T03:26:00;3.83;;;0.95;;
48751;SDS011;34544;48.836;9.174;2023-11-21T03:28:26;3.65;;;0.80;;
48751;SDS011;34544;48.836;9.174;2023-11-21T03:30:55;2.00;;;0.63;;
48751;SDS011;34544;48.836;9.174;2023-11-21T03:33:23;3.45;;;0.73;;
48751;SDS011;34544;48.836;9.174;2023-11-21T03:35:48;2.05;;;0.88;;
48751;SDS011;34544;48.836;9.174;2023-11-21T03:38:14;3.08;;;0.60;;
48751;SDS011;34544;48.836;9.174;2023-11-21T03:40:41;1.60;;;0.70;;
48751;SDS011;34544;48.836;9.174;2023-11-21T03:43:07;3.83;;;0.85;;
48751;SDS011;34544;48.836;9.174;2023-11-21T03:45:33;0.80;;;0.45;;
48751;SDS011;34544;48.836;9.174;2023-11-21T03:47:59;3.85;;;0.43;;
48751;SDS011;34544;48.836;9.174;2023-11-21T03:50:28;1.00;;;0.60;;
48751;SDS011;34544;48.836;9.174;2023-11-21T03:52:54;1.42;;;0.80;;
48751;SDS011;34544;48.836;9.174;2023-11-21T03:55:20;1.17;;;0.70;;
48751;SDS011;34544;48.836;9.174;2023-11-21T03:57:46;4.10;;;0.68;;
48751;SDS011;34544;48.836;9.174;2023-11-21T04:00:12;1.05;;;0.40;;
48751;SDS011;34544;48.836;9.174;2023-11-21T04:02:38;2.25;;;0.57;;
48751;SDS011;34544;48.836;9.174;2023-11-21T04:05:04;1.13;;;0.60;;
48751;SDS011;34544;48.836;9.174;2023-11-21T04:07:32;1.73;;;0.93;;
48751;SDS011;34544;48.836;9.174;2023-11-21T04:09:59;1.15;;;0.52;;
48751;SDS011;34544;48.836;9.174;2023-11-21T04:12:24;3.33;;;0.82;;
48751;SDS011;34544;48.836;9.174;2023-11-21T04:14:50;1.67;;;0.70;;
48751;SDS011;34544;48.836;9.174;2023-11-21T04:17:18;3.25;;;0.90;;
48751;SDS011;34544;48.836;9.174;2023-11-21T04:19:44;1.25;;;0.50;;
48751;SDS011;34544;48.836;9.174;2023-11-21T04:22:11;0.75;;;0.50;;
48751;SDS011;34544;48.836;9.174;2023-11-21T04:24:37;1.67;;;0.82;;
48751;SDS011;34544;48.836;9.174;2023-11-21T04:27:03;3.17;;;1.02;;
48751;SDS011;34544;48.836;9.174;2023-11-21T04:29:29;8.93;;;1.15;;
48751;SDS011;34544;48.836;9.174;2023-11-21T04:31:55;1.35;;;0.75;;
48751;SDS011;34544;48.836;9.174;2023-11-21T04:34:21;1.52;;;1.02;;
48751;SDS011;34544;48.836;9.174;2023-11-21T04:36:46;3.25;;;0.90;;
48751;SDS011;34544;48.836;9.174;2023-11-21T04:39:12;3.83;;;1.05;;
48751;SDS011;34544;48.836;9.174;2023-11-21T04:41:38;1.45;;;0.75;;
48751;SDS011;34544;48.836;9.174;2023-11-21T04:44:07;2.63;;;0.50;;
48751;SDS011;34544;48.836;9.174;2023-11-21T04:46:33;1.67;;;1.08;;
48751;SDS011;34544;48.836;9.174;2023-11-21T04:48:59;2.55;;;0.80;;
48751;SDS011;34544;48.836;9.174;2023-11-21T04:51:24;2.05;;;0.98;;
48751;SDS011;34544;48.836;9.174;2023-11-21T04:53:50;3.72;;;1.38;;
48751;SDS011;34544;48.836;9.174;2023-11-21T04:56:15;2.15;;;1.20;;
48751;SDS011;34544;48.836;9.174;2023-11-21T04:58:41;3.05;;;1.20;;
48751;SDS011;34544;48.836;9.174;2023-11-21T05:01:07;3.85;;;1.63;;
48751;SDS011;34544;48.836;9.174;2023-11-21T05:03:33;4.03;;;1.60;;
48751;SDS011;34544;48.836;9.174;2023-11-21T05:05:59;3.90;;;1.50;;
48751;SDS011;34544;48.836;9.174;2023-11-21T05:08:25;5.20;;;2.15;;
48751;SDS011;34544;48.836;9.174;2023-11-21T05:10:51;5.78;;;2.35;;
48751;SDS011;34544;48.836;9.174;2023-11-21T05:13:17;5.35;;;1.75;;
48751;SDS011;34544;48.836;9.174;2023-11-21T05:15:44;5.97;;;2.05;;
48751;SDS011;34544;48.836;9.174;2023-11-21T05:18:10;7.25;;;1.70;;
48751;SDS011;34544;48.836;9.174;2023-11-21T05:20:36;4.38;;;1.92;;
48751;SDS011;34544;48.836;9.174;2023-11-21T05:23:04;3.50;;;1.67;;
48751;SDS011;34544;48.836;9.174;2023-11-21T05:25:30;6.00;;;1.90;;
48751;SDS011;34544;48.836;9.174;2023-11-21T05:27:57;7.22;;;1.90;;
48751;SDS011;34544;48.836;9.174;2023-11-21T05:30:26;2.88;;;1.55;;
48751;SDS011;34544;48.836;9.174;2023-11-21T05:32:53;3.90;;;1.30;;
48751;SDS011;34544;48.836;9.174;2023-11-21T05:35:18;6.10;;;1.90;;
48751;SDS011;34544;48.836;9.174;2023-11-21T05:37:47;6.97;;;1.80;;
48751;SDS011;34544;48.836;9.174;2023-11-21T05:40:13;5.07;;;2.17;;
48751;SDS011;34544;48.836;9.174;2023-11-21T05:42:39;3.58;;;1.65;;
48751;SDS011;34544;48.836;9.174;2023-11-21T05:45:06;7.90;;;2.17;;
48751;SDS011;34544;48.836;9.174;2023-11-21T05:47:45;2.17;;;1.67;;
48751;SDS011;34544;48.836;9.174;2023-11-21T05:50:12;4.30;;;2.17;;
48751;SDS011;34544;48.836;9.174;2023-11-21T05:52:46;4.47;;;1.80;;
48751;SDS011;34544;48.836;9.174;2023-11-21T05:55:13;7.32;;;2.13;;
48751;SDS011;34544;48.836;9.174;2023-11-21T05:57:39;6.53;;;2.08;;
48751;SDS011;34544;48.836;9.174;2023-11-21T06:00:07;7.15;;;2.58;;
48751;SDS011;34544;48.836;9.174;2023-11-21T06:02:45;3.47;;;1.38;;
48751;SDS011;34544;48.836;9.174;2023-11-21T06:05:12;3.40;;;0.85;;
48751;SDS011;34544;48.836;9.174;2023-11-21T06:07:38;3.40;;;1.70;;
48751;SDS011;34544;48.836;9.174;2023-11-21T06:10:05;5.45;;;1.85;;
48751;SDS011;34544;48.836;9.174;2023-11-21T06:12:35;3.67;;;1.55;;
48751;SDS011;34544;48.836;9.174;2023-11-21T06:15:04;5.18;;;1.60;;
48751;SDS011;34544;48.836;9.174;2023-11-21T06:17:32;1.90;;;1.30;;
48751;SDS011;34544;48.836;9.174;2023-11-21T06:19:58;2.15;;;1.35;;
48751;SDS011;34544;48.836;9.174;2023-11-21T06:22:24;2.30;;;1.10;;
48751;SDS011;34544;48.836;9.174;2023-11-21T06:24:50;1.15;;;0.77;;
48751;SDS011;34544;48.836;9.174;2023-11-21T06:27:15;3.72;;;1.02;;
48751;SDS011;34544;48.836;9.174;2023-11-21T06:29:41;2.88;;;1.20;;
48751;SDS011;34544;48.836;9.174;2023-11-21T06:32:07;2.50;;;1.15;;
48751;SDS011;34544;48.836;9.174;2023-11-21T06:34:33;6.97;;;2.25;;
48751;SDS011;34544;48.836;9.174;2023-11-21T06:36:59;2.65;;;1.20;;
48751;SDS011;34544;48.836;9.174;2023-11-21T06:39:25;8.48;;;1.30;;
48751;SDS011;34544;48.836;9.174;2023-11-21T06:41:51;1.48;;;0.80;;
48751;SDS011;34544;48.836;9.174;2023-11-21T06:44:16;3.55;;;1.40;;
48751;SDS011;34544;48.836;9.174;2023-11-21T06:46:42;3.42;;;1.45;;
48751;SDS011;34544;48.836;9.174;2023-11-21T06:49:08;3.05;;;1.67;;
48751;SDS011;34544;48.836;9.174;2023-11-21T06:51:34;4.43;;;1.65;;
48751;SDS011;34544;48.836;9.174;2023-11-21T06:53:59;3.80;;;1.40;;
48751;SDS011;34544;48.836;9.174;2023-11-21T06:56:25;4.22;;;1.38;;
48751;SDS011;34544;48.836;9.174;2023-11-21T06:58:51;4.28;;;1.92;;
48751;SDS011;34544;48.836;9.174;2023-11-21T07:01:19;3.03;;;1.95;;
48751;SDS011;34544;48.836;9.174;2023-11-21T07:03:45;5.75;;;1.67;;
48751;SDS011;34544;48.836;9.174;2023-11-21T07:06:11;3.55;;;1.33;;
48751;SDS011;34544;48.836;9.174;2023-11-21T07:08:37;2.80;;;1.23;;
48751;SDS011;34544;48.836;9.174;2023-11-21T07:11:03;3.90;;;2.00;;
48751;SDS011;34544;48.836;9.174;2023-11-21T07:13:30;1.75;;;1.40;;
48751;SDS011;34544;48.836;9.174;2023-11-21T07:15:57;2.17;;;1.42;;
48751;SDS011;34544;48.836;9.174;2023-11-21T07:18:24;3.72;;;1.95;;
48751;SDS011;34544;48.836;9.174;2023-11-21T07:20:50;4.22;;;1.83;;
48751;SDS011;34544;48.836;9.174;2023-11-21T07:23:16;2.22;;;1.30;;
48751;SDS011;34544;48.836;9.174;2023-11-21T07:25:42;4.88;;;2.40;;
48751;SDS011;34544;48.836;9.174;2023-11-21T07:28:08;2.97;;;1.42;;
48751;SDS011;34544;48.836;9.174;2023-11-21T07:30:34;6.38;;;2.40;;
48751;SDS011;34544;48.836;9.174;2023-11-21T07:33:00;7.60;;;2.35;;
48751;SDS011;34544;48.836;9.174;2023-11-21T07:35:25;2.15;;;1.35;;
48751;SDS011;34544;48.836;9.174;2023-11-21T07:37:51;3.65;;;1.45;;
48751;SDS011;34544;48.836;9.174;2023-11-21T07:40:17;3.97;;;2.00;;
48751;SDS011;34544;48.836;9.174;2023-11-21T07:42:43;2.22;;;1.63;;
48751;SDS011;34544;48.836;9.174;2023-11-21T07:45:09;1.98;;;1.58;;
48751;SDS011;34544;48.836;9.174;2023-11-21T07:47:35;2.50;;;1.80;;
48751;SDS011;34544;48.836;9.174;2023-11-21T07:50:04;3.63;;;1.35;;
48751;SDS011;34544;48.836;9.174;2023-11-21T07:52:32;5.30;;;2.03;;
48751;SDS011;34544;48.836;9.174;2023-11-21T07:54:58;1.20;;;1.10;;
48751;SDS011;34544;48.836;9.174;2023-11-21T07:57:24;1.77;;;1.10;;
48751;SDS011;34544;48.836;9.174;2023-11-21T07:59:51;2.05;;;0.90;;
48751;SDS011;34544;48.836;9.174;2023-11-21T08:02:18;1.90;;;1.05;;
48751;SDS011;34544;48.836;9.174;2023-11-21T08:04:44;1.70;;;0.93;;
48751;SDS011;34544;48.836;9.174;2023-11-21T08:07:10;0.68;;;0.68;;
48751;SDS011;34544;48.836;9.174;2023-11-21T08:09:36;2.15;;;0.93;;
48751;SDS011;34544;48.836;9.174;2023-11-21T08:12:01;2.92;;;1.13;;
48751;SDS011;34544;48.836;9.174;2023-11-21T08:14:28;1.30;;;0.77;;
48751;SDS011;34544;48.836;9.174;2023-11-21T08:16:54;2.63;;;1.50;;
48751;SDS011;34544;48.836;9.174;2023-11-21T08:19:23;2.38;;;1.27;;
48751;SDS011;34544;48.836;9.174;2023-11-21T08:21:50;2.42;;;1.65;;
48751;SDS011;34544;48.836;9.174;2023-11-21T08:24:16;4.90;;;1.60;;
48751;SDS011;34544;48.836;9.174;2023-11-21T08:26:42;2.70;;;1.48;;
48751;SDS011;34544;48.836;9.174;2023-11-21T08:29:08;3.13;;;1.33;;
48751;SDS011;34544;48.836;9.174;2023-11-21T08:31:33;2.75;;;1.55;;
48751;SDS011;34544;48.836;9.174;2023-11-21T08:33:59;2.28;;;1.35;;
48751;SDS011;34544;48.836;9.174;2023-11-21T08:36:28;2.85;;;1.98;;
48751;SDS011;34544;48.836;9.174;2023-11-21T08:38:54;6.57;;;2.78;;
48751;SDS011;34544;48.836;9.174;2023-11-21T08:41:19;3.35;;;2.05;;
48751;SDS011;34544;48.836;9.174;2023-11-21T08:43:49;4.20;;;1.23;;
48751;SDS011;34544;48.836;9.174;2023-11-21T08:46:16;4.38;;;1.55;;
48751;SDS011;34544;48.836;9.174;2023-11-21T08:48:43;4.93;;;1.33;;
48751;SDS011;34544;48.836;9.174;2023-11-21T08:51:09;2.65;;;1.45;;
48751;SDS011;34544;48.836;9.174;2023-11-21T08:53:36;3.05;;;1.63;;
48751;SDS011;34544;48.836;9.174;2023-11-21T08:56:03;2.00;;;1.17;;
48751;SDS011;34544;48.836;9.174;2023-11-21T08:58:30;1.80;;;1.67;;
48751;SDS011;34544;48.836;9.174;2023-11-21T09:00:57;3.53;;;1.95;;
48751;SDS011;34544;48.836;9.174;2023-11-21T09:03:23;3.17;;;1.65;;
48751;SDS011;34544;48.836;9.174;2023-11-21T09:05:49;3.50;;;1.77;;
48751;SDS011;34544;48.836;9.174;2023-11-21T09:08:14;2.42;;;1.42;;
48751;SDS011;34544;48.836;9.174;2023-11-21T09:10:40;1.85;;;1.02;;
48751;SDS011;34544;48.836;9.174;2023-11-21T09:13:08;1.92;;;1.50;;
48751;SDS011;34544;48.836;9.174;2023-11-21T09:15:34;3.35;;;1.42;;
48751;SDS011;34544;48.836;9.174;2023-11-21T09:18:00;1.15;;;0.73;;
48751;SDS011;34544;48.836;9.174;2023-11-21T09:20:26;2.10;;;1.15;;
48751;SDS011;34544;48.836;9.174;2023-11-21T09:22:52;1.10;;;0.70;;
48751;SDS011;34544;48.836;9.174;2023-11-21T09:25:19;1.50;;;0.80;;
48751;SDS011;34544;48.836;9.174;2023-11-21T09:27:46;0.70;;;0.60;;
48751;SDS011;34544;48.836;9.174;2023-11-21T09:30:12;1.50;;;0.95;;
48751;SDS011;34544;48.836;9.174;2023-11-21T09:32:39;1.65;;;0.95;;
48751;SDS011;34544;48.836;9.174;2023-11-21T09:35:05;2.88;;;0.85;;
48751;SDS011;34544;48.836;9.174;2023-11-21T09:37:34;1.75;;;0.90;;
48751;SDS011;34544;48.836;9.174;2023-11-21T09:40:03;2.42;;;1.27;;
48751;SDS011;34544;48.836;9.174;2023-11-21T09:43:16;1.50;;;1.33;;
48751;SDS011;34544;48.836;9.174;2023-11-21T09:45:24;4.90;;;0.85;;
48751;SDS011;34544;48.836;9.174;2023-11-21T09:47:55;2.55;;;1.20;;
48751;SDS011;34544;48.836;9.174;2023-11-21T09:50:21;6.00;;;1.25;;
48751;SDS011;34544;48.836;9.174;2023-11-21T09:53:08;2.13;;;1.40;;
48751;SDS011;34544;48.836;9.174;2023-11-21T09:55:47;2.78;;;1.42;;
48751;SDS011;34544;48.836;9.174;2023-11-21T09:58:16;1.33;;;1.13;;
48751;SDS011;34544;48.836;9.174;2023-11-21T10:00:48;3.05;;;1.27;;
48751;SDS011;34544;48.836;9.174;2023-11-21T10:03:17;1.50;;;0.98;;
48751;SDS011;34544;48.836;9.174;2023-11-21T10:05:43;1.17;;;0.73;;
48751;SDS011;34544;48.836;9.174;2023-11-21T10:08:11;1.75;;;1.05;;
48751;SDS011;34544;48.836;9.174;2023-11-21T10:10:38;3.60;;;1.45;;
48751;SDS011;34544;48.836;9.174;2023-11-21T10:13:11;2.35;;;1.35;;
48751;SDS011;34544;48.836;9.174;2023-11-21T10:15:37;5.43;;;1.20;;
48751;SDS011;34544;48.836;9.174;2023-11-21T10:18:04;1.83;;;0.90;;
48751;SDS011;34544;48.836;9.174;2023-11-21T10:20:31;1.95;;;1.20;;
48751;SDS011;34544;48.836;9.174;2023-11-21T10:23:03;2.10;;;0.88;;
48751;SDS011;34544;48.836;9.174;2023-11-21T10:25:29;4.50;;;1.92;;
48751;SDS011;34544;48.836;9.174;2023-11-21T10:27:59;1.15;;;0.68;;
48751;SDS011;34544;48.836;9.174;2023-11-21T10:30:34;1.38;;;0.55;;
48751;SDS011;34544;48.836;9.174;2023-11-21T10:33:04;1.20;;;0.50;;
48751;SDS011;34544;48.836;9.174;2023-11-21T10:35:46;2.13;;;0.60;;
48751;SDS011;34544;48.836;9.174;2023-11-21T10:38:18;0.73;;;0.60;;
48751;SDS011;34544;48.836;9.174;2023-11-21T10:40:46;0.43;;;0.43;;
48751;SDS011;34544;48.836;9.174;2023-11-21T10:43:13;1.27;;;0.65;;
48751;SDS011;34544;48.836;9.174;2023-11-21T10:45:41;1.48;;;1.15;;
48751;SDS011;34544;48.836;9.174;2023-11-21T10:48:08;3.67;;;1.15;;
48751;SDS011;34544;48.836;9.174;2023-11-21T10:50:42;4.63;;;0.70;;
48751;SDS011;34544;48.836;9.174;2023-11-21T10:53:09;0.45;;;0.35;;
48751;SDS011;34544;48.836;9.174;2023-11-21T10:55:34;1.15;;;0.80;;
48751;SDS011;34544;48.836;9.174;2023-11-21T10:58:01;1.52;;;0.70;;
48751;SDS011;34544;48.836;9.174;2023-11-21T11:00:29;3.58;;;0.80;;
48751;SDS011;34544;48.836;9.174;2023-11-21T11:02:56;2.70;;;0.70;;
48751;SDS011;34544;48.836;9.174;2023-11-21T11:05:24;0.95;;;0.85;;
48751;SDS011;34544;48.836;9.174;2023-11-21T11:08:02;4.50;;;1.23;;
48751;SDS011;34544;48.836;9.174;2023-11-21T11:10:30;0.68;;;0.60;;
48751;SDS011;34544;48.836;9.174;2023-11-21T11:12:57;1.15;;;0.80;;
48751;SDS011;34544;48.836;9.174;2023-11-21T11:15:24;2.28;;;0.60;;
48751;SDS011;34544;48.836;9.174;2023-11-21T11:17:51;0.90;;;0.70;;
48751;SDS011;34544;48.836;9.174;2023-11-21T11:20:17;1.13;;;0.95;;
48751;SDS011;34544;48.836;9.174;2023-11-21T11:28:53;1.92;;;1.25;;
48751;SDS011;34544;48.836;9.174;2023-11-21T11:31:51;1.95;;;1.20;;
48751;SDS011;34544;48.836;9.174;2023-11-21T11:34:32;1.10;;;0.93;;
48751;SDS011;34544;48.836;9.174;2023-11-21T11:37:03;3.97;;;1.05;;
48751;SDS011;34544;48.836;9.174;2023-11-21T11:42:12;2.70;;;0.90;;
48751;SDS011;34544;48.836;9.174;2023-11-21T11:50:07;1.95;;;1.10;;
48751;SDS011;34544;48.836;9.174;2023-11-21T11:52:39;1.75;;;1.65;;
48751;SDS011;34544;48.836;9.174;2023-11-21T11:55:06;0.90;;;0.90;;
48751;SDS011;34544;48.836;9.174;2023-11-21T11:57:35;4.30;;;1.35;;
48751;SDS011;34544;48.836;9.174;2023-11-21T12:00:23;1.50;;;1.10;;
48751;SDS011;34544;48.836;9.174;2023-11-21T12:03:02;1.08;;;1.00;;
48751;SDS011;34544;48.836;9.174;2023-11-21T12:05:34;1.40;;;1.10;;
48751;SDS011;34544;48.836;9.174;2023-11-21T12:08:04;1.42;;;1.33;;
48751;SDS011;34544;48.836;9.174;2023-11-21T12:10:32;1.60;;;1.35;;
48751;SDS011;34544;48.836;9.174;2023-11-21T12:15:30;1.67;;;1.05;;
48751;SDS011;34544;48.836;9.174;2023-11-21T12:17:56;2.15;;;1.60;;
48751;SDS011;34544;48.836;9.174;2023-11-21T12:20:24;1.52;;;1.42;;
48751;SDS011;34544;48.836;9.174;2023-11-21T12:22:51;1.20;;;0.98;;
48751;SDS011;34544;48.836;9.174;2023-11-21T12:25:19;2.25;;;1.38;;
48751;SDS011;34544;48.836;9.174;2023-11-21T12:27:49;2.00;;;1.45;;
48751;SDS011;34544;48.836;9.174;2023-11-21T12:30:17;2.80;;;1.70;;
48751;SDS011;34544;48.836;9.174;2023-11-21T12:32:44;2.53;;;1.40;;
48751;SDS011;34544;48.836;9.174;2023-11-21T12:35:13;1.48;;;1.38;;
48751;SDS011;34544;48.836;9.174;2023-11-21T12:37:40;7.55;;;2.70;;
48751;SDS011;34544;48.836;9.174;2023-11-21T12:40:09;2.22;;;2.00;;
48751;SDS011;34544;48.836;9.174;2023-11-21T12:42:46;1.90;;;1.67;;
48751;SDS011;34544;48.836;9.174;2023-11-21T12:47:49;0.73;;;0.73;;
48751;SDS011;34544;48.836;9.174;2023-11-21T12:50:18;0.80;;;0.80;;
48751;SDS011;34544;48.836;9.174;2023-11-21T12:52:49;3.85;;;0.93;;
48751;SDS011;34544;48.836;9.174;2023-11-21T12:57:43;0.98;;;0.90;;
48751;SDS011;34544;48.836;9.174;2023-11-21T13:00:10;1.60;;;1.17;;
48751;SDS011;34544;48.836;9.174;2023-11-21T13:02:52;0.90;;;0.70;;
48751;SDS011;34544;48.836;9.174;2023-11-21T13:05:28;2.65;;;0.75;;
48751;SDS011;34544;48.836;9.174;2023-11-21T13:08:03;1.10;;;1.00;;
48751;SDS011;34544;48.836;9.174;2023-11-21T13:10:33;2.72;;;0.90;;
48751;SDS011;34544;48.836;9.174;2023-11-21T13:13:01;0.85;;;0.60;;
48751;SDS011;34544;48.836;9.174;2023-11-21T13:15:30;1.85;;;0.90;;
48751;SDS011;34544;48.836;9.174;2023-11-21T13:17:57;1.40;;;1.08;;
48751;SDS011;34544;48.836;9.174;2023-11-21T13:20:27;2.85;;;1.23;;
48751;SDS011;34544;48.836;9.174;2023-11-21T13:22:53;2.97;;;1.23;;
48751;SDS011;34544;48.836;9.174;2023-11-21T13:25:22;1.80;;;0.88;;
48751;SDS011;34544;48.836;9.174;2023-11-21T13:27:49;3.45;;;1.02;;
48751;SDS011;34544;48.836;9.174;2023-11-21T13:30:16;2.55;;;0.95;;
48751;SDS011;34544;48.836;9.174;2023-11-21T13:32:42;1.10;;;0.73;;
48751;SDS011;34544;48.836;9.174;2023-11-21T13:35:09;1.55;;;1.13;;
48751;SDS011;34544;48.836;9.174;2023-11-21T13:37:48;1.73;;;1.10;;
48751;SDS011;34544;48.836;9.174;2023-11-21T13:40:19;1.60;;;1.33;;
48751;SDS011;34544;48.836;9.174;2023-11-21T13:42:48;3.38;;;1.13;;
48751;SDS011;34544;48.836;9.174;2023-11-21T13:45:18;2.17;;;1.38;;
48751;SDS011;34544;48.836;9.174;2023-11-21T13:47:48;3.13;;;1.63;;
48751;SDS011;34544;48.836;9.174;2023-11-21T13:50:17;4.75;;;1.98;;
48751;SDS011;34544;48.836;9.174;2023-11-21T13:52:48;1.65;;;1.40;;
48751;SDS011;34544;48.836;9.174;2023-11-21T13:55:16;2.30;;;1.35;;
48751;SDS011;34544;48.836;9.174;2023-11-21T13:57:42;2.83;;;1.80;;
48751;SDS011;34544;48.836;9.174;2023-11-21T14:00:11;1.95;;;1.20;;
48751;SDS011;34544;48.836;9.174;2023-11-21T14:02:57;2.70;;;1.65;;
48751;SDS011;34544;48.836;9.174;2023-11-21T14:05:28;2.47;;;1.38;;
48751;SDS011;34544;48.836;9.174;2023-11-21T14:07:55;1.88;;;1.40;;
48751;SDS011;34544;48.836;9.174;2023-11-21T14:10:27;8.10;;;1.33;;
48751;SDS011;34544;48.836;9.174;2023-11-21T14:13:02;1.73;;;1.17;;
48751;SDS011;34544;48.836;9.174;2023-11-21T14:15:29;4.57;;;1.17;;
48751;SDS011;34544;48.836;9.174;2023-11-21T14:17:56;1.25;;;1.10;;
48751;SDS011;34544;48.836;9.174;2023-11-21T14:20:22;2.97;;;1.17;;
48751;SDS011;34544;48.836;9.174;2023-11-21T14:22:47;1.08;;;0.90;;
48751;SDS011;34544;48.836;9.174;2023-11-21T14:25:13;1.25;;;1.15;;
48751;SDS011;34544;48.836;9.174;2023-11-21T14:27:40;2.05;;;1.45;;
48751;SDS011;34544;48.836;9.174;2023-11-21T14:30:06;1.13;;;1.02;;
48751;SDS011;34544;48.836;9.174;2023-11-21T14:32:32;2.38;;;1.30;;
48751;SDS011;34544;48.836;9.174;2023-11-21T14:34:57;1.50;;;1.23;;
48751;SDS011;34544;48.836;9.174;2023-11-21T14:37:23;1.65;;;1.33;;
48751;SDS011;34544;48.836;9.174;2023-11-21T14:39:49;1.50;;;0.93;;
48751;SDS011;34544;48.836;9.174;2023-11-21T14:42:15;1.58;;;1.25;;
48751;SDS011;34544;48.836;9.174;2023-11-21T14:44:41;4.30;;;1.20;;
48751;SDS011;34544;48.836;9.174;2023-11-21T14:47:08;2.50;;;1.38;;
48751;SDS011;34544;48.836;9.174;2023-11-21T14:49:43;1.88;;;1.25;;
48751;SDS011;34544;48.836;9.174;2023-11-21T14:52:24;2.33;;;1.25;;
48751;SDS011;34544;48.836;9.174;2023-11-21T14:55:00;1.30;;;1.20;;
48751;SDS011;34544;48.836;9.174;2023-11-21T14:57:47;2.00;;;1.65;;
48751;SDS011;34544;48.836;9.174;2023-11-21T15:00:16;5.03;;;1.75;;
48751;SDS011;34544;48.836;9.174;2023-11-21T15:03:01;2.40;;;1.50;;
48751;SDS011;34544;48.836;9.174;2023-11-21T15:05:28;4.53;;;1.73;;
48751;SDS011;34544;48.836;9.174;2023-11-21T15:07:55;1.60;;;1.35;;
48751;SDS011;34544;48.836;9.174;2023-11-21T15:10:23;3.33;;;2.00;;
48751;SDS011;34544;48.836;9.174;2023-11-21T15:13:10;3.63;;;2.50;;
48751;SDS011;34544;48.836;9.174;2023-11-21T15:15:36;2.30;;;1.98;;